sensor_id;sensor_type;location;lat;lon;timestamp;P1;durP1;ratioP1;P2;durP2;ratioP2
11386;SDS011;5748;53.102;8.456;2023-06-14T00:00:31;1.30;;;0.87;;
11386;SDS011;5748;53.102;8.456;2023-06-14T00:02:59;0.77;;;0.77;;
11386;SDS011;5748;53.102;8.456;2023-06-14T00:05:26;0.70;;;0.70;;
11386;SDS011;5748;53.102;8.456;2023-06-14T00:07:54;0.90;;;0.80;;
11386;SDS011;5748;53.102;8.456;2023-06-14T00:10:23;0.80;;;0.80;;
11386;SDS011;5748;53.102;8.456;2023-06-14T00:12:49;0.90;;;0.90;;
11386;SDS011;5748;53.102;8.456;2023-06-14T00:15:16;0.90;;;0.90;;
11386;SDS011;5748;53.102;8.456;2023-06-14T00:17:43;0.83;;;0.80;;
11386;SDS011;5748;53.102;8.456;2023-06-14T00:20:12;0.80;;;0.80;;
11386;SDS011;5748;53.102;8.456;2023-06-14T00:22:39;0.97;;;0.90;;
11386;SDS011;5748;53.102;8.456;2023-06-14T00:25:06;0.70;;;0.70;;
11386;SDS011;5748;53.102;8.456;2023-06-14T00:27:35;3.10;;;1.03;;
11386;SDS011;5748;53.102;8.456;2023-06-14T00:30:01;0.80;;;0.80;;
11386;SDS011;5748;53.102;8.456;2023-06-14T00:32:29;1.03;;;0.90;;
11386;SDS011;5748;53.102;8.456;2023-06-14T00:34:56;0.90;;;0.90;;
11386;SDS011;5748;53.102;8.456;2023-06-14T00:37:23;2.07;;;0.80;;
11386;SDS011;5748;53.102;8.456;2023-06-14T00:39:49;0.83;;;0.83;;
11386;SDS011;5748;53.102;8.456;2023-06-14T00:42:23;0.80;;;0.80;;
11386;SDS011;5748;53.102;8.456;2023-06-14T00:44:52;1.60;;;1.00;;
11386;SDS011;5748;53.102;8.456;2023-06-14T00:47:19;1.70;;;0.90;;
11386;SDS011;5748;53.102;8.456;2023-06-14T00:49:47;1.00;;;0.90;;
11386;SDS011;5748;53.102;8.456;2023-06-14T00:52:15;0.97;;;0.80;;
11386;SDS011;5748;53.102;8.456;2023-06-14T00:54:43;0.90;;;0.90;;
11386;SDS011;5748;53.102;8.456;2023-06-14T00:57:11;0.83;;;0.80;;
11386;SDS011;5748;53.102;8.456;2023-06-14T00:59:41;0.97;;;0.90;;
11386;SDS011;5748;53.102;8.456;2023-06-14T01:02:12;0.83;;;0.83;;
11386;SDS011;5748;53.102;8.456;2023-06-14T01:04:41;1.00;;;0.90;;
11386;SDS011;5748;53.102;8.456;2023-06-14T01:07:15;1.07;;;0.80;;
11386;SDS011;5748;53.102;8.456;2023-06-14T01:09:56;1.10;;;0.90;;
11386;SDS011;5748;53.102;8.456;2023-06-14T01:12:58;0.97;;;0.87;;
11386;SDS011;5748;53.102;8.456;2023-06-14T01:15:31;1.10;;;1.00;;
11386;SDS011;5748;53.102;8.456;2023-06-14T01:18:00;1.10;;;1.00;;
11386;SDS011;5748;53.102;8.456;2023-06-14T01:20:29;0.90;;;0.90;;
11386;SDS011;5748;53.102;8.456;2023-06-14T01:22:59;1.23;;;1.10;;
11386;SDS011;5748;53.102;8.456;2023-06-14T01:25:27;1.37;;;1.00;;
11386;SDS011;5748;53.102;8.456;2023-06-14T01:27:55;1.00;;;0.90;;
11386;SDS011;5748;53.102;8.456;2023-06-14T01:30:25;1.57;;;0.97;;
11386;SDS011;5748;53.102;8.456;2023-06-14T01:32:53;1.20;;;1.10;;
11386;SDS011;5748;53.102;8.456;2023-06-14T01:35:22;1.37;;;1.10;;
11386;SDS011;5748;53.102;8.456;2023-06-14T01:37:49;0.80;;;0.80;;
11386;SDS011;5748;53.102;8.456;2023-06-14T01:40:18;1.10;;;0.97;;
11386;SDS011;5748;53.102;8.456;2023-06-14T01:42:47;1.10;;;0.90;;
11386;SDS011;5748;53.102;8.456;2023-06-14T01:45:16;1.03;;;1.00;;
11386;SDS011;5748;53.102;8.456;2023-06-14T01:47:44;0.97;;;0.90;;
11386;SDS011;5748;53.102;8.456;2023-06-14T01:50:12;0.90;;;0.90;;
11386;SDS011;5748;53.102;8.456;2023-06-14T01:52:39;0.83;;;0.83;;
11386;SDS011;5748;53.102;8.456;2023-06-14T01:55:07;1.37;;;0.90;;
11386;SDS011;5748;53.102;8.456;2023-06-14T01:57:36;1.83;;;0.97;;
11386;SDS011;5748;53.102;8.456;2023-06-14T02:00:03;1.13;;;1.00;;
11386;SDS011;5748;53.102;8.456;2023-06-14T02:02:35;1.00;;;0.90;;
11386;SDS011;5748;53.102;8.456;2023-06-14T02:05:02;1.30;;;1.20;;
11386;SDS011;5748;53.102;8.456;2023-06-14T02:07:30;1.00;;;0.90;;
11386;SDS011;5748;53.102;8.456;2023-06-14T02:09:57;1.23;;;1.00;;
11386;SDS011;5748;53.102;8.456;2023-06-14T02:12:24;1.00;;;1.00;;
11386;SDS011;5748;53.102;8.456;2023-06-14T02:14:52;1.00;;;0.97;;
11386;SDS011;5748;53.102;8.456;2023-06-14T02:17:19;1.20;;;1.10;;
11386;SDS011;5748;53.102;8.456;2023-06-14T02:19:46;1.40;;;1.30;;
11386;SDS011;5748;53.102;8.456;2023-06-14T02:22:13;1.20;;;1.10;;
11386;SDS011;5748;53.102;8.456;2023-06-14T02:24:41;1.30;;;1.20;;
11386;SDS011;5748;53.102;8.456;2023-06-14T02:27:08;1.13;;;1.07;;
11386;SDS011;5748;53.102;8.456;2023-06-14T02:29:35;1.30;;;1.20;;
11386;SDS011;5748;53.102;8.456;2023-06-14T02:32:04;1.37;;;1.27;;
11386;SDS011;5748;53.102;8.456;2023-06-14T02:34:32;1.50;;;1.13;;
11386;SDS011;5748;53.102;8.456;2023-06-14T02:36:59;1.40;;;1.30;;
11386;SDS011;5748;53.102;8.456;2023-06-14T02:39:27;1.27;;;1.17;;
11386;SDS011;5748;53.102;8.456;2023-06-14T02:41:54;1.47;;;1.30;;
11386;SDS011;5748;53.102;8.456;2023-06-14T02:44:23;1.27;;;1.17;;
11386;SDS011;5748;53.102;8.456;2023-06-14T02:46:51;1.73;;;1.40;;
11386;SDS011;5748;53.102;8.456;2023-06-14T02:49:20;1.37;;;1.07;;
11386;SDS011;5748;53.102;8.456;2023-06-14T02:51:47;1.30;;;1.20;;
11386;SDS011;5748;53.102;8.456;2023-06-14T02:54:14;2.47;;;1.30;;
11386;SDS011;5748;53.102;8.456;2023-06-14T02:56:41;1.33;;;1.23;;
11386;SDS011;5748;53.102;8.456;2023-06-14T02:59:08;2.13;;;1.50;;
11386;SDS011;5748;53.102;8.456;2023-06-14T03:01:35;1.50;;;1.23;;
11386;SDS011;5748;53.102;8.456;2023-06-14T03:04:06;1.80;;;1.30;;
11386;SDS011;5748;53.102;8.456;2023-06-14T03:06:34;1.67;;;1.30;;
11386;SDS011;5748;53.102;8.456;2023-06-14T03:09:01;1.33;;;1.23;;
11386;SDS011;5748;53.102;8.456;2023-06-14T03:11:30;1.30;;;1.20;;
11386;SDS011;5748;53.102;8.456;2023-06-14T03:13:57;1.50;;;1.40;;
11386;SDS011;5748;53.102;8.456;2023-06-14T03:16:25;2.00;;;1.20;;
11386;SDS011;5748;53.102;8.456;2023-06-14T03:18:53;1.57;;;1.30;;
11386;SDS011;5748;53.102;8.456;2023-06-14T03:21:20;2.47;;;1.40;;
11386;SDS011;5748;53.102;8.456;2023-06-14T03:23:49;1.77;;;1.30;;
11386;SDS011;5748;53.102;8.456;2023-06-14T03:26:16;1.33;;;1.23;;
11386;SDS011;5748;53.102;8.456;2023-06-14T03:28:43;1.40;;;1.30;;
11386;SDS011;5748;53.102;8.456;2023-06-14T03:31:10;1.30;;;1.20;;
11386;SDS011;5748;53.102;8.456;2023-06-14T03:33:38;1.93;;;1.30;;
11386;SDS011;5748;53.102;8.456;2023-06-14T03:36:05;1.87;;;1.37;;
11386;SDS011;5748;53.102;8.456;2023-06-14T03:38:33;1.50;;;1.20;;
11386;SDS011;5748;53.102;8.456;2023-06-14T03:41:01;1.20;;;1.10;;
11386;SDS011;5748;53.102;8.456;2023-06-14T03:43:28;2.20;;;1.10;;
11386;SDS011;5748;53.102;8.456;2023-06-14T03:45:56;2.03;;;1.40;;
11386;SDS011;5748;53.102;8.456;2023-06-14T03:48:23;1.40;;;1.30;;
11386;SDS011;5748;53.102;8.456;2023-06-14T03:50:50;1.43;;;1.20;;
11386;SDS011;5748;53.102;8.456;2023-06-14T03:53:17;1.60;;;1.30;;
11386;SDS011;5748;53.102;8.456;2023-06-14T03:55:45;1.40;;;1.30;;
11386;SDS011;5748;53.102;8.456;2023-06-14T03:58:14;1.40;;;1.30;;
11386;SDS011;5748;53.102;8.456;2023-06-14T04:00:41;1.77;;;1.40;;
11386;SDS011;5748;53.102;8.456;2023-06-14T04:03:08;1.37;;;1.20;;
11386;SDS011;5748;53.102;8.456;2023-06-14T04:05:35;1.30;;;1.20;;
11386;SDS011;5748;53.102;8.456;2023-06-14T04:08:02;1.23;;;1.13;;
11386;SDS011;5748;53.102;8.456;2023-06-14T04:10:29;1.23;;;1.13;;
11386;SDS011;5748;53.102;8.456;2023-06-14T04:12:56;1.70;;;1.40;;
11386;SDS011;5748;53.102;8.456;2023-06-14T04:15:24;1.37;;;1.27;;
11386;SDS011;5748;53.102;8.456;2023-06-14T04:17:53;1.80;;;1.40;;
11386;SDS011;5748;53.102;8.456;2023-06-14T04:20:22;1.30;;;1.20;;
11386;SDS011;5748;53.102;8.456;2023-06-14T04:22:50;1.30;;;1.20;;
11386;SDS011;5748;53.102;8.456;2023-06-14T04:25:17;1.30;;;1.20;;
11386;SDS011;5748;53.102;8.456;2023-06-14T04:27:45;1.20;;;1.10;;
11386;SDS011;5748;53.102;8.456;2023-06-14T04:30:12;1.47;;;1.23;;
11386;SDS011;5748;53.102;8.456;2023-06-14T04:32:41;1.80;;;1.40;;
11386;SDS011;5748;53.102;8.456;2023-06-14T04:35:09;1.50;;;1.20;;
11386;SDS011;5748;53.102;8.456;2023-06-14T04:37:36;1.20;;;1.10;;
11386;SDS011;5748;53.102;8.456;2023-06-14T04:40:09;1.30;;;1.20;;
11386;SDS011;5748;53.102;8.456;2023-06-14T04:42:36;1.20;;;1.10;;
11386;SDS011;5748;53.102;8.456;2023-06-14T04:45:06;1.40;;;1.27;;
11386;SDS011;5748;53.102;8.456;2023-06-14T04:47:34;1.50;;;1.40;;
11386;SDS011;5748;53.102;8.456;2023-06-14T04:50:04;2.00;;;1.43;;
11386;SDS011;5748;53.102;8.456;2023-06-14T04:52:31;2.03;;;1.30;;
11386;SDS011;5748;53.102;8.456;2023-06-14T04:55:00;1.40;;;1.30;;
11386;SDS011;5748;53.102;8.456;2023-06-14T04:57:28;1.77;;;1.47;;
11386;SDS011;5748;53.102;8.456;2023-06-14T04:59:55;1.67;;;1.57;;
11386;SDS011;5748;53.102;8.456;2023-06-14T05:02:25;1.60;;;1.40;;
11386;SDS011;5748;53.102;8.456;2023-06-14T05:04:53;1.60;;;1.50;;
11386;SDS011;5748;53.102;8.456;2023-06-14T05:07:23;2.20;;;1.50;;
11386;SDS011;5748;53.102;8.456;2023-06-14T05:09:50;2.57;;;1.47;;
11386;SDS011;5748;53.102;8.456;2023-06-14T05:12:17;1.37;;;1.23;;
11386;SDS011;5748;53.102;8.456;2023-06-14T05:14:44;1.80;;;1.50;;
11386;SDS011;5748;53.102;8.456;2023-06-14T05:17:11;1.40;;;1.30;;
11386;SDS011;5748;53.102;8.456;2023-06-14T05:19:38;1.50;;;1.37;;
11386;SDS011;5748;53.102;8.456;2023-06-14T05:22:05;1.50;;;1.40;;
11386;SDS011;5748;53.102;8.456;2023-06-14T05:24:33;1.60;;;1.50;;
11386;SDS011;5748;53.102;8.456;2023-06-14T05:27:00;1.60;;;1.30;;
11386;SDS011;5748;53.102;8.456;2023-06-14T05:29:27;1.23;;;1.13;;
11386;SDS011;5748;53.102;8.456;2023-06-14T05:31:54;1.50;;;1.40;;
11386;SDS011;5748;53.102;8.456;2023-06-14T05:34:21;1.10;;;1.08;;
11386;SDS011;5748;53.102;8.456;2023-06-14T05:36:48;2.00;;;1.10;;
11386;SDS011;5748;53.102;8.456;2023-06-14T05:39:14;1.83;;;1.40;;
11386;SDS011;5748;53.102;8.456;2023-06-14T05:41:43;1.55;;;1.33;;
11386;SDS011;5748;53.102;8.456;2023-06-14T05:44:10;1.33;;;1.20;;
11386;SDS011;5748;53.102;8.456;2023-06-14T05:46:37;1.30;;;1.20;;
11386;SDS011;5748;53.102;8.456;2023-06-14T05:49:05;1.20;;;1.10;;
11386;SDS011;5748;53.102;8.456;2023-06-14T05:51:32;1.45;;;1.10;;
11386;SDS011;5748;53.102;8.456;2023-06-14T05:53:59;1.90;;;1.10;;
11386;SDS011;5748;53.102;8.456;2023-06-14T05:56:26;1.15;;;1.10;;
11386;SDS011;5748;53.102;8.456;2023-06-14T05:58:54;1.20;;;1.00;;
11386;SDS011;5748;53.102;8.456;2023-06-14T06:01:21;2.45;;;1.17;;
11386;SDS011;5748;53.102;8.456;2023-06-14T06:03:48;1.30;;;1.20;;
11386;SDS011;5748;53.102;8.456;2023-06-14T06:06:15;1.48;;;1.30;;
11386;SDS011;5748;53.102;8.456;2023-06-14T06:08:42;1.33;;;1.20;;
11386;SDS011;5748;53.102;8.456;2023-06-14T06:11:09;1.75;;;1.40;;
11386;SDS011;5748;53.102;8.456;2023-06-14T06:13:36;1.00;;;1.00;;
11386;SDS011;5748;53.102;8.456;2023-06-14T06:16:05;1.17;;;1.10;;
11386;SDS011;5748;53.102;8.456;2023-06-14T06:18:32;1.08;;;1.08;;
11386;SDS011;5748;53.102;8.456;2023-06-14T06:20:59;1.13;;;1.02;;
11386;SDS011;5748;53.102;8.456;2023-06-14T06:23:28;1.00;;;0.90;;
11386;SDS011;5748;53.102;8.456;2023-06-14T06:25:55;1.02;;;1.00;;
11386;SDS011;5748;53.102;8.456;2023-06-14T06:28:21;0.90;;;0.90;;
11386;SDS011;5748;53.102;8.456;2023-06-14T06:30:48;1.02;;;1.00;;
11386;SDS011;5748;53.102;8.456;2023-06-14T06:33:17;1.00;;;1.00;;
11386;SDS011;5748;53.102;8.456;2023-06-14T06:35:44;1.00;;;1.00;;
11386;SDS011;5748;53.102;8.456;2023-06-14T06:38:11;1.70;;;1.08;;
11386;SDS011;5748;53.102;8.456;2023-06-14T06:40:37;1.73;;;1.10;;
11386;SDS011;5748;53.102;8.456;2023-06-14T06:43:04;1.20;;;1.08;;
11386;SDS011;5748;53.102;8.456;2023-06-14T06:45:31;1.80;;;1.10;;
11386;SDS011;5748;53.102;8.456;2023-06-14T06:47:58;1.42;;;1.10;;
11386;SDS011;5748;53.102;8.456;2023-06-14T06:50:26;6.28;;;1.30;;
11386;SDS011;5748;53.102;8.456;2023-06-14T06:52:53;1.20;;;1.10;;
11386;SDS011;5748;53.102;8.456;2023-06-14T06:55:20;1.02;;;1.02;;
11386;SDS011;5748;53.102;8.456;2023-06-14T06:57:47;1.00;;;1.00;;
11386;SDS011;5748;53.102;8.456;2023-06-14T07:00:17;1.25;;;1.15;;
11386;SDS011;5748;53.102;8.456;2023-06-14T07:02:45;0.85;;;0.85;;
11386;SDS011;5748;53.102;8.456;2023-06-14T07:05:12;1.50;;;1.13;;
11386;SDS011;5748;53.102;8.456;2023-06-14T07:07:43;0.90;;;0.90;;
11386;SDS011;5748;53.102;8.456;2023-06-14T07:10:11;0.90;;;0.90;;
11386;SDS011;5748;53.102;8.456;2023-06-14T07:12:38;1.00;;;1.00;;
11386;SDS011;5748;53.102;8.456;2023-06-14T07:15:05;1.40;;;1.10;;
11386;SDS011;5748;53.102;8.456;2023-06-14T07:17:34;1.50;;;1.20;;
11386;SDS011;5748;53.102;8.456;2023-06-14T07:20:01;1.85;;;1.00;;
11386;SDS011;5748;53.102;8.456;2023-06-14T07:22:36;1.58;;;1.23;;
11386;SDS011;5748;53.102;8.456;2023-06-14T07:25:07;1.50;;;1.10;;
11386;SDS011;5748;53.102;8.456;2023-06-14T07:27:37;1.05;;;1.05;;
11386;SDS011;5748;53.102;8.456;2023-06-14T07:30:05;1.05;;;0.95;;
11386;SDS011;5748;53.102;8.456;2023-06-14T07:32:34;1.00;;;0.90;;
11386;SDS011;5748;53.102;8.456;2023-06-14T07:35:01;1.38;;;1.27;;
11386;SDS011;5748;53.102;8.456;2023-06-14T07:37:28;1.30;;;1.20;;
11386;SDS011;5748;53.102;8.456;2023-06-14T07:39:55;1.20;;;1.10;;
11386;SDS011;5748;53.102;8.456;2023-06-14T07:42:24;1.10;;;1.00;;
11386;SDS011;5748;53.102;8.456;2023-06-14T07:44:50;1.00;;;1.00;;
11386;SDS011;5748;53.102;8.456;2023-06-14T07:47:18;0.95;;;0.93;;
11386;SDS011;5748;53.102;8.456;2023-06-14T07:49:45;0.80;;;0.80;;
11386;SDS011;5748;53.102;8.456;2023-06-14T07:52:12;0.93;;;0.90;;
11386;SDS011;5748;53.102;8.456;2023-06-14T07:54:39;0.80;;;0.80;;
11386;SDS011;5748;53.102;8.456;2023-06-14T07:57:07;0.80;;;0.80;;
11386;SDS011;5748;53.102;8.456;2023-06-14T07:59:35;0.95;;;0.95;;
11386;SDS011;5748;53.102;8.456;2023-06-14T08:02:02;1.52;;;0.70;;
11386;SDS011;5748;53.102;8.456;2023-06-14T08:04:30;0.95;;;0.70;;
11386;SDS011;5748;53.102;8.456;2023-06-14T08:06:58;0.90;;;0.90;;
11386;SDS011;5748;53.102;8.456;2023-06-14T08:09:25;0.73;;;0.73;;
11386;SDS011;5748;53.102;8.456;2023-06-14T08:11:54;1.02;;;0.80;;
11386;SDS011;5748;53.102;8.456;2023-06-14T08:14:20;0.80;;;0.80;;
11386;SDS011;5748;53.102;8.456;2023-06-14T08:16:49;0.60;;;0.60;;
11386;SDS011;5748;53.102;8.456;2023-06-14T08:19:16;0.70;;;0.70;;
11386;SDS011;5748;53.102;8.456;2023-06-14T08:21:43;0.90;;;0.90;;
11386;SDS011;5748;53.102;8.456;2023-06-14T08:24:11;0.73;;;0.73;;
11386;SDS011;5748;53.102;8.456;2023-06-14T08:26:39;0.80;;;0.80;;
11386;SDS011;5748;53.102;8.456;2023-06-14T08:29:06;0.80;;;0.80;;
11386;SDS011;5748;53.102;8.456;2023-06-14T08:31:33;1.05;;;0.93;;
11386;SDS011;5748;53.102;8.456;2023-06-14T08:34:02;0.80;;;0.80;;
11386;SDS011;5748;53.102;8.456;2023-06-14T08:36:29;0.77;;;0.75;;
11386;SDS011;5748;53.102;8.456;2023-06-14T08:38:56;0.80;;;0.80;;
11386;SDS011;5748;53.102;8.456;2023-06-14T08:41:23;0.77;;;0.77;;
11386;SDS011;5748;53.102;8.456;2023-06-14T08:43:50;0.60;;;0.60;;
11386;SDS011;5748;53.102;8.456;2023-06-14T08:46:17;0.65;;;0.65;;
11386;SDS011;5748;53.102;8.456;2023-06-14T08:48:46;1.55;;;0.70;;
11386;SDS011;5748;53.102;8.456;2023-06-14T08:51:17;0.80;;;0.80;;
11386;SDS011;5748;53.102;8.456;2023-06-14T08:53:46;1.65;;;0.88;;
11386;SDS011;5748;53.102;8.456;2023-06-14T08:56:22;0.80;;;0.80;;
11386;SDS011;5748;53.102;8.456;2023-06-14T08:58:52;0.70;;;0.70;;
11386;SDS011;5748;53.102;8.456;2023-06-14T09:01:21;1.13;;;0.70;;
11386;SDS011;5748;53.102;8.456;2023-06-14T09:03:48;1.13;;;0.90;;
11386;SDS011;5748;53.102;8.456;2023-06-14T09:06:17;0.70;;;0.65;;
11386;SDS011;5748;53.102;8.456;2023-06-14T09:08:45;0.70;;;0.70;;
11386;SDS011;5748;53.102;8.456;2023-06-14T09:11:14;0.90;;;0.90;;
11386;SDS011;5748;53.102;8.456;2023-06-14T09:13:44;0.85;;;0.85;;
11386;SDS011;5748;53.102;8.456;2023-06-14T09:16:11;1.45;;;0.80;;
11386;SDS011;5748;53.102;8.456;2023-06-14T09:18:39;1.05;;;0.60;;
11386;SDS011;5748;53.102;8.456;2023-06-14T09:21:09;0.80;;;0.70;;
11386;SDS011;5748;53.102;8.456;2023-06-14T09:23:39;0.70;;;0.70;;
11386;SDS011;5748;53.102;8.456;2023-06-14T09:26:08;0.70;;;0.70;;
11386;SDS011;5748;53.102;8.456;2023-06-14T09:28:36;0.70;;;0.70;;
11386;SDS011;5748;53.102;8.456;2023-06-14T09:31:07;0.60;;;0.60;;
11386;SDS011;5748;53.102;8.456;2023-06-14T09:33:35;0.60;;;0.60;;
11386;SDS011;5748;53.102;8.456;2023-06-14T09:36:02;0.80;;;0.80;;
11386;SDS011;5748;53.102;8.456;2023-06-14T09:38:30;0.70;;;0.70;;
11386;SDS011;5748;53.102;8.456;2023-06-14T09:40:58;1.00;;;0.70;;
11386;SDS011;5748;53.102;8.456;2023-06-14T09:43:25;1.05;;;0.70;;
11386;SDS011;5748;53.102;8.456;2023-06-14T09:45:53;0.60;;;0.60;;
11386;SDS011;5748;53.102;8.456;2023-06-14T09:48:20;0.68;;;0.68;;
11386;SDS011;5748;53.102;8.456;2023-06-14T09:50:48;0.60;;;0.60;;
11386;SDS011;5748;53.102;8.456;2023-06-14T09:53:16;0.70;;;0.70;;
11386;SDS011;5748;53.102;8.456;2023-06-14T09:55:48;0.60;;;0.60;;
11386;SDS011;5748;53.102;8.456;2023-06-14T09:58:18;0.77;;;0.77;;
11386;SDS011;5748;53.102;8.456;2023-06-14T10:00:49;0.70;;;0.70;;
11386;SDS011;5748;53.102;8.456;2023-06-14T10:03:21;0.60;;;0.60;;
11386;SDS011;5748;53.102;8.456;2023-06-14T10:05:51;0.70;;;0.70;;
11386;SDS011;5748;53.102;8.456;2023-06-14T10:08:22;0.73;;;0.73;;
11386;SDS011;5748;53.102;8.456;2023-06-14T10:10:51;2.15;;;0.80;;
11386;SDS011;5748;53.102;8.456;2023-06-14T10:13:20;0.70;;;0.70;;
11386;SDS011;5748;53.102;8.456;2023-06-14T10:15:51;0.80;;;0.80;;
11386;SDS011;5748;53.102;8.456;2023-06-14T10:18:27;1.45;;;0.80;;
11386;SDS011;5748;53.102;8.456;2023-06-14T10:21:03;0.70;;;0.70;;
11386;SDS011;5748;53.102;8.456;2023-06-14T10:23:38;0.70;;;0.70;;
11386;SDS011;5748;53.102;8.456;2023-06-14T10:26:08;0.90;;;0.90;;
11386;SDS011;5748;53.102;8.456;2023-06-14T10:28:56;0.80;;;0.80;;
11386;SDS011;5748;53.102;8.456;2023-06-14T10:31:41;0.57;;;0.57;;
11386;SDS011;5748;53.102;8.456;2023-06-14T10:34:10;0.60;;;0.60;;
11386;SDS011;5748;53.102;8.456;2023-06-14T10:36:37;0.80;;;0.70;;
11386;SDS011;5748;53.102;8.456;2023-06-14T10:39:10;0.80;;;0.80;;
11386;SDS011;5748;53.102;8.456;2023-06-14T10:41:42;0.77;;;0.77;;
11386;SDS011;5748;53.102;8.456;2023-06-14T10:44:34;0.80;;;0.80;;
11386;SDS011;5748;53.102;8.456;2023-06-14T10:47:10;0.70;;;0.70;;
11386;SDS011;5748;53.102;8.456;2023-06-14T10:49:49;1.33;;;0.90;;
11386;SDS011;5748;53.102;8.456;2023-06-14T10:52:21;0.80;;;0.80;;
11386;SDS011;5748;53.102;8.456;2023-06-14T10:55:04;0.70;;;0.70;;
11386;SDS011;5748;53.102;8.456;2023-06-14T10:57:36;0.80;;;0.80;;
11386;SDS011;5748;53.102;8.456;2023-06-14T11:00:07;0.70;;;0.70;;
11386;SDS011;5748;53.102;8.456;2023-06-14T11:02:46;2.25;;;0.93;;
11386;SDS011;5748;53.102;8.456;2023-06-14T11:05:23;1.80;;;0.90;;
11386;SDS011;5748;53.102;8.456;2023-06-14T11:07:56;0.65;;;0.65;;
11386;SDS011;5748;53.102;8.456;2023-06-14T11:10:42;0.85;;;0.85;;
11386;SDS011;5748;53.102;8.456;2023-06-14T11:13:11;0.80;;;0.80;;
11386;SDS011;5748;53.102;8.456;2023-06-14T11:15:44;1.00;;;0.90;;
11386;SDS011;5748;53.102;8.456;2023-06-14T11:18:13;1.05;;;0.80;;
11386;SDS011;5748;53.102;8.456;2023-06-14T11:20:41;0.90;;;0.90;;
11386;SDS011;5748;53.102;8.456;2023-06-14T11:23:08;0.90;;;0.90;;
11386;SDS011;5748;53.102;8.456;2023-06-14T11:25:35;0.88;;;0.88;;
11386;SDS011;5748;53.102;8.456;2023-06-14T11:28:02;0.82;;;0.80;;
11386;SDS011;5748;53.102;8.456;2023-06-14T11:30:30;1.38;;;1.15;;
11386;SDS011;5748;53.102;8.456;2023-06-14T11:32:58;1.27;;;1.20;;
11386;SDS011;5748;53.102;8.456;2023-06-14T11:35:26;1.05;;;1.00;;
11386;SDS011;5748;53.102;8.456;2023-06-14T11:37:54;1.10;;;1.00;;
11386;SDS011;5748;53.102;8.456;2023-06-14T11:40:23;1.88;;;1.02;;
11386;SDS011;5748;53.102;8.456;2023-06-14T11:42:57;1.15;;;1.00;;
11386;SDS011;5748;53.102;8.456;2023-06-14T11:45:26;1.30;;;1.20;;
11386;SDS011;5748;53.102;8.456;2023-06-14T11:47:54;0.93;;;0.93;;
11386;SDS011;5748;53.102;8.456;2023-06-14T11:50:24;2.67;;;1.30;;
11386;SDS011;5748;53.102;8.456;2023-06-14T11:52:52;1.00;;;1.00;;
11386;SDS011;5748;53.102;8.456;2023-06-14T11:55:19;1.10;;;1.00;;
11386;SDS011;5748;53.102;8.456;2023-06-14T11:57:46;1.40;;;1.10;;
11386;SDS011;5748;53.102;8.456;2023-06-14T12:00:14;1.20;;;1.10;;
11386;SDS011;5748;53.102;8.456;2023-06-14T12:02:42;1.20;;;1.10;;
11386;SDS011;5748;53.102;8.456;2023-06-14T12:05:20;0.90;;;0.90;;
11386;SDS011;5748;53.102;8.456;2023-06-14T12:07:48;1.10;;;1.00;;
11386;SDS011;5748;53.102;8.456;2023-06-14T12:10:18;1.20;;;1.10;;
11386;SDS011;5748;53.102;8.456;2023-06-14T12:12:45;1.60;;;1.17;;
11386;SDS011;5748;53.102;8.456;2023-06-14T12:15:12;1.20;;;1.10;;
11386;SDS011;5748;53.102;8.456;2023-06-14T12:17:39;1.65;;;1.20;;
11386;SDS011;5748;53.102;8.456;2023-06-14T12:20:09;1.20;;;1.10;;
11386;SDS011;5748;53.102;8.456;2023-06-14T12:22:38;1.20;;;1.10;;
11386;SDS011;5748;53.102;8.456;2023-06-14T12:25:27;1.38;;;1.17;;
11386;SDS011;5748;53.102;8.456;2023-06-14T12:27:56;1.30;;;1.20;;
11386;SDS011;5748;53.102;8.456;2023-06-14T12:30:23;1.20;;;1.10;;
11386;SDS011;5748;53.102;8.456;2023-06-14T12:32:50;1.20;;;1.10;;
11386;SDS011;5748;53.102;8.456;2023-06-14T12:35:17;1.20;;;1.05;;
11386;SDS011;5748;53.102;8.456;2023-06-14T12:37:45;1.45;;;1.27;;
11386;SDS011;5748;53.102;8.456;2023-06-14T12:40:12;2.78;;;1.20;;
11386;SDS011;5748;53.102;8.456;2023-06-14T12:42:41;1.15;;;1.10;;
11386;SDS011;5748;53.102;8.456;2023-06-14T12:45:08;2.08;;;1.35;;
11386;SDS011;5748;53.102;8.456;2023-06-14T12:47:36;1.23;;;1.13;;
11386;SDS011;5748;53.102;8.456;2023-06-14T12:50:03;1.20;;;1.10;;
11386;SDS011;5748;53.102;8.456;2023-06-14T12:52:32;1.65;;;1.33;;
11386;SDS011;5748;53.102;8.456;2023-06-14T12:55:01;1.30;;;1.20;;
11386;SDS011;5748;53.102;8.456;2023-06-14T12:57:29;1.38;;;1.27;;
11386;SDS011;5748;53.102;8.456;2023-06-14T12:59:57;1.42;;;1.33;;
11386;SDS011;5748;53.102;8.456;2023-06-14T13:02:25;1.50;;;1.40;;
11386;SDS011;5748;53.102;8.456;2023-06-14T13:04:54;1.33;;;1.23;;
11386;SDS011;5748;53.102;8.456;2023-06-14T13:07:22;1.70;;;1.60;;
11386;SDS011;5748;53.102;8.456;2023-06-14T13:09:49;2.40;;;1.30;;
11386;SDS011;5748;53.102;8.456;2023-06-14T13:12:15;2.28;;;1.30;;
11386;SDS011;5748;53.102;8.456;2023-06-14T13:14:42;1.40;;;1.30;;
11386;SDS011;5748;53.102;8.456;2023-06-14T13:17:11;1.45;;;1.30;;
11386;SDS011;5748;53.102;8.456;2023-06-14T13:19:38;1.80;;;1.10;;
11386;SDS011;5748;53.102;8.456;2023-06-14T13:22:06;1.27;;;1.20;;
11386;SDS011;5748;53.102;8.456;2023-06-14T13:24:33;1.20;;;1.10;;
11386;SDS011;5748;53.102;8.456;2023-06-14T13:27:01;1.65;;;1.05;;
11386;SDS011;5748;53.102;8.456;2023-06-14T13:29:28;1.67;;;1.08;;
11386;SDS011;5748;53.102;8.456;2023-06-14T13:31:56;1.95;;;1.15;;
11386;SDS011;5748;53.102;8.456;2023-06-14T13:34:24;1.40;;;1.30;;
11386;SDS011;5748;53.102;8.456;2023-06-14T13:36:51;1.20;;;1.10;;
11386;SDS011;5748;53.102;8.456;2023-06-14T13:39:18;1.17;;;1.08;;
11386;SDS011;5748;53.102;8.456;2023-06-14T13:41:45;1.30;;;1.20;;
11386;SDS011;5748;53.102;8.456;2023-06-14T13:44:12;1.20;;;1.10;;
11386;SDS011;5748;53.102;8.456;2023-06-14T13:46:41;1.30;;;1.20;;
11386;SDS011;5748;53.102;8.456;2023-06-14T13:49:09;1.83;;;1.10;;
11386;SDS011;5748;53.102;8.456;2023-06-14T13:51:38;1.25;;;1.15;;
11386;SDS011;5748;53.102;8.456;2023-06-14T13:54:05;1.30;;;1.20;;
11386;SDS011;5748;53.102;8.456;2023-06-14T13:56:32;1.42;;;1.30;;
11386;SDS011;5748;53.102;8.456;2023-06-14T13:58:59;1.23;;;1.00;;
11386;SDS011;5748;53.102;8.456;2023-06-14T14:01:26;1.40;;;1.30;;
11386;SDS011;5748;53.102;8.456;2023-06-14T14:03:53;1.13;;;1.10;;
11386;SDS011;5748;53.102;8.456;2023-06-14T14:06:21;1.40;;;1.30;;
11386;SDS011;5748;53.102;8.456;2023-06-14T14:08:49;1.30;;;1.20;;
11386;SDS011;5748;53.102;8.456;2023-06-14T14:11:17;1.30;;;1.20;;
11386;SDS011;5748;53.102;8.456;2023-06-14T14:13:45;1.38;;;1.27;;
11386;SDS011;5748;53.102;8.456;2023-06-14T14:16:12;1.58;;;1.48;;
11386;SDS011;5748;53.102;8.456;2023-06-14T14:18:40;1.10;;;1.00;;
11386;SDS011;5748;53.102;8.456;2023-06-14T14:21:07;1.30;;;1.20;;
11386;SDS011;5748;53.102;8.456;2023-06-14T14:23:34;1.40;;;1.30;;
11386;SDS011;5748;53.102;8.456;2023-06-14T14:26:02;1.25;;;1.15;;
11386;SDS011;5748;53.102;8.456;2023-06-14T14:28:29;1.35;;;1.25;;
11386;SDS011;5748;53.102;8.456;2023-06-14T14:30:57;1.60;;;1.20;;
11386;SDS011;5748;53.102;8.456;2023-06-14T14:33:24;1.30;;;1.20;;
11386;SDS011;5748;53.102;8.456;2023-06-14T14:35:51;1.77;;;1.20;;
11386;SDS011;5748;53.102;8.456;2023-06-14T14:38:18;1.00;;;1.00;;
11386;SDS011;5748;53.102;8.456;2023-06-14T14:40:45;1.52;;;1.20;;
11386;SDS011;5748;53.102;8.456;2023-06-14T14:43:13;1.67;;;1.10;;
11386;SDS011;5748;53.102;8.456;2023-06-14T14:45:40;1.25;;;1.15;;
11386;SDS011;5748;53.102;8.456;2023-06-14T14:48:07;1.00;;;1.00;;
11386;SDS011;5748;53.102;8.456;2023-06-14T14:50:34;1.48;;;1.17;;
11386;SDS011;5748;53.102;8.456;2023-06-14T14:53:01;1.17;;;1.08;;
11386;SDS011;5748;53.102;8.456;2023-06-14T14:55:28;1.60;;;1.45;;
11386;SDS011;5748;53.102;8.456;2023-06-14T14:57:55;2.28;;;1.65;;
11386;SDS011;5748;53.102;8.456;2023-06-14T15:00:24;2.33;;;1.40;;
11386;SDS011;5748;53.102;8.456;2023-06-14T15:02:51;2.00;;;1.60;;
11386;SDS011;5748;53.102;8.456;2023-06-14T15:05:18;1.67;;;1.58;;
11386;SDS011;5748;53.102;8.456;2023-06-14T15:07:45;1.30;;;1.20;;